sensor_id;sensor_type;location;lat;lon;timestamp;P1;durP1;ratioP1;P2;durP2;ratioP2
6207;SDS011;3137;51.550;7.060;2024-01-11T00:01:10;111.37;;;39.57;;
6207;SDS011;3137;51.550;7.060;2024-01-11T00:03:37;93.77;;;36.63;;
6207;SDS011;3137;51.550;7.060;2024-01-11T00:06:03;86.73;;;36.90;;
6207;SDS011;3137;51.550;7.060;2024-01-11T00:08:30;90.77;;;36.40;;
6207;SDS011;3137;51.550;7.060;2024-01-11T00:10:57;82.50;;;35.93;;
6207;SDS011;3137;51.550;7.060;2024-01-11T00:13:23;104.70;;;39.33;;
6207;SDS011;3137;51.550;7.060;2024-01-11T00:15:49;90.50;;;37.70;;
6207;SDS011;3137;51.550;7.060;2024-01-11T00:18:16;104.10;;;38.37;;
6207;SDS011;3137;51.550;7.060;2024-01-11T00:20:44;110.63;;;38.07;;
6207;SDS011;3137;51.550;7.060;2024-01-11T00:23:10;80.97;;;34.60;;
6207;SDS011;3137;51.550;7.060;2024-01-11T00:25:38;92.20;;;35.97;;
6207;SDS011;3137;51.550;7.060;2024-01-11T00:28:04;102.00;;;37.60;;
6207;SDS011;3137;51.550;7.060;2024-01-11T00:30:31;98.40;;;37.50;;
6207;SDS011;3137;51.550;7.060;2024-01-11T00:32:57;80.70;;;34.47;;
6207;SDS011;3137;51.550;7.060;2024-01-11T00:35:24;88.63;;;37.30;;
6207;SDS011;3137;51.550;7.060;2024-01-11T00:37:51;83.37;;;34.53;;
6207;SDS011;3137;51.550;7.060;2024-01-11T00:40:17;88.20;;;36.30;;
6207;SDS011;3137;51.550;7.060;2024-01-11T00:42:44;93.23;;;38.40;;
6207;SDS011;3137;51.550;7.060;2024-01-11T00:45:10;91.23;;;35.47;;
6207;SDS011;3137;51.550;7.060;2024-01-11T00:47:37;95.63;;;37.70;;
6207;SDS011;3137;51.550;7.060;2024-01-11T00:50:03;92.17;;;37.03;;
6207;SDS011;3137;51.550;7.060;2024-01-11T00:52:30;87.40;;;35.00;;
6207;SDS011;3137;51.550;7.060;2024-01-11T00:54:57;98.30;;;37.50;;
6207;SDS011;3137;51.550;7.060;2024-01-11T00:57:23;95.13;;;37.63;;
6207;SDS011;3137;51.550;7.060;2024-01-11T00:59:50;85.43;;;35.77;;
6207;SDS011;3137;51.550;7.060;2024-01-11T01:02:16;88.73;;;37.77;;
6207;SDS011;3137;51.550;7.060;2024-01-11T01:04:42;93.50;;;37.63;;
6207;SDS011;3137;51.550;7.060;2024-01-11T01:07:09;93.23;;;37.03;;
6207;SDS011;3137;51.550;7.060;2024-01-11T01:09:36;96.30;;;39.90;;
6207;SDS011;3137;51.550;7.060;2024-01-11T01:12:02;85.63;;;35.93;;
6207;SDS011;3137;51.550;7.060;2024-01-11T01:14:29;80.53;;;34.77;;
6207;SDS011;3137;51.550;7.060;2024-01-11T01:16:55;97.70;;;36.10;;
6207;SDS011;3137;51.550;7.060;2024-01-11T01:19:22;93.30;;;36.50;;
6207;SDS011;3137;51.550;7.060;2024-01-11T01:21:48;86.80;;;35.00;;
6207;SDS011;3137;51.550;7.060;2024-01-11T01:24:15;90.83;;;37.57;;
6207;SDS011;3137;51.550;7.060;2024-01-11T01:26:41;90.07;;;35.63;;
6207;SDS011;3137;51.550;7.060;2024-01-11T01:29:08;89.60;;;37.20;;
6207;SDS011;3137;51.550;7.060;2024-01-11T01:31:34;101.93;;;38.17;;
6207;SDS011;3137;51.550;7.060;2024-01-11T01:34:03;92.77;;;37.67;;
6207;SDS011;3137;51.550;7.060;2024-01-11T01:36:31;99.23;;;38.07;;
6207;SDS011;3137;51.550;7.060;2024-01-11T01:38:57;89.77;;;35.13;;
6207;SDS011;3137;51.550;7.060;2024-01-11T01:41:24;88.00;;;34.97;;
6207;SDS011;3137;51.550;7.060;2024-01-11T01:43:50;93.23;;;37.17;;
6207;SDS011;3137;51.550;7.060;2024-01-11T01:46:18;83.17;;;34.53;;
6207;SDS011;3137;51.550;7.060;2024-01-11T01:48:48;94.33;;;38.17;;
6207;SDS011;3137;51.550;7.060;2024-01-11T01:51:14;90.77;;;36.90;;
6207;SDS011;3137;51.550;7.060;2024-01-11T01:53:41;91.53;;;38.23;;
6207;SDS011;3137;51.550;7.060;2024-01-11T01:56:08;91.43;;;37.60;;
6207;SDS011;3137;51.550;7.060;2024-01-11T01:58:34;90.23;;;34.40;;
6207;SDS011;3137;51.550;7.060;2024-01-11T02:01:01;96.70;;;37.80;;
6207;SDS011;3137;51.550;7.060;2024-01-11T02:03:28;106.63;;;40.57;;
6207;SDS011;3137;51.550;7.060;2024-01-11T02:05:55;102.70;;;38.80;;
6207;SDS011;3137;51.550;7.060;2024-01-11T02:08:23;91.57;;;37.50;;
6207;SDS011;3137;51.550;7.060;2024-01-11T02:10:51;103.33;;;40.03;;
6207;SDS011;3137;51.550;7.060;2024-01-11T02:13:18;84.40;;;35.37;;
6207;SDS011;3137;51.550;7.060;2024-01-11T02:15:45;87.67;;;35.80;;
6207;SDS011;3137;51.550;7.060;2024-01-11T02:18:12;100.07;;;39.30;;
6207;SDS011;3137;51.550;7.060;2024-01-11T02:20:39;93.50;;;37.00;;
6207;SDS011;3137;51.550;7.060;2024-01-11T02:23:05;91.23;;;36.80;;
6207;SDS011;3137;51.550;7.060;2024-01-11T02:25:38;93.57;;;40.93;;
6207;SDS011;3137;51.550;7.060;2024-01-11T02:28:04;100.17;;;38.83;;
6207;SDS011;3137;51.550;7.060;2024-01-11T02:30:31;84.93;;;35.60;;
6207;SDS011;3137;51.550;7.060;2024-01-11T02:32:57;83.80;;;35.80;;
6207;SDS011;3137;51.550;7.060;2024-01-11T02:35:24;99.60;;;37.90;;
6207;SDS011;3137;51.550;7.060;2024-01-11T02:37:52;94.63;;;38.37;;
6207;SDS011;3137;51.550;7.060;2024-01-11T02:40:19;94.77;;;36.57;;
6207;SDS011;3137;51.550;7.060;2024-01-11T02:42:46;96.80;;;39.53;;
6207;SDS011;3137;51.550;7.060;2024-01-11T02:45:13;94.77;;;36.70;;
6207;SDS011;3137;51.550;7.060;2024-01-11T02:47:40;93.23;;;36.83;;
6207;SDS011;3137;51.550;7.060;2024-01-11T02:50:07;92.63;;;37.50;;
6207;SDS011;3137;51.550;7.060;2024-01-11T02:52:34;91.73;;;36.73;;
6207;SDS011;3137;51.550;7.060;2024-01-11T02:55:01;82.80;;;37.20;;
6207;SDS011;3137;51.550;7.060;2024-01-11T02:57:28;96.03;;;39.13;;
6207;SDS011;3137;51.550;7.060;2024-01-11T02:59:54;98.77;;;39.47;;
6207;SDS011;3137;51.550;7.060;2024-01-11T03:02:21;87.77;;;35.77;;
6207;SDS011;3137;51.550;7.060;2024-01-11T03:04:47;94.33;;;35.20;;
6207;SDS011;3137;51.550;7.060;2024-01-11T03:07:14;75.23;;;34.80;;
6207;SDS011;3137;51.550;7.060;2024-01-11T03:09:40;92.37;;;35.83;;
6207;SDS011;3137;51.550;7.060;2024-01-11T03:12:07;83.17;;;34.50;;
6207;SDS011;3137;51.550;7.060;2024-01-11T03:14:33;97.07;;;36.03;;
6207;SDS011;3137;51.550;7.060;2024-01-11T03:17:00;86.77;;;37.00;;
6207;SDS011;3137;51.550;7.060;2024-01-11T03:19:27;83.73;;;35.00;;
6207;SDS011;3137;51.550;7.060;2024-01-11T03:21:54;99.37;;;38.40;;
6207;SDS011;3137;51.550;7.060;2024-01-11T03:24:20;104.33;;;37.37;;
6207;SDS011;3137;51.550;7.060;2024-01-11T03:26:47;105.73;;;38.80;;
6207;SDS011;3137;51.550;7.060;2024-01-11T03:29:14;90.97;;;35.70;;
6207;SDS011;3137;51.550;7.060;2024-01-11T03:31:41;89.40;;;37.53;;
6207;SDS011;3137;51.550;7.060;2024-01-11T03:34:09;97.07;;;36.77;;
6207;SDS011;3137;51.550;7.060;2024-01-11T03:36:35;103.13;;;39.53;;
6207;SDS011;3137;51.550;7.060;2024-01-11T03:39:02;97.50;;;37.17;;
6207;SDS011;3137;51.550;7.060;2024-01-11T03:41:29;98.20;;;38.70;;
6207;SDS011;3137;51.550;7.060;2024-01-11T03:43:55;101.00;;;37.87;;
6207;SDS011;3137;51.550;7.060;2024-01-11T03:46:22;98.27;;;38.63;;
6207;SDS011;3137;51.550;7.060;2024-01-11T03:48:48;88.90;;;36.63;;
6207;SDS011;3137;51.550;7.060;2024-01-11T03:51:15;97.33;;;39.43;;
6207;SDS011;3137;51.550;7.060;2024-01-11T03:53:41;95.27;;;38.80;;
6207;SDS011;3137;51.550;7.060;2024-01-11T03:56:08;90.93;;;38.77;;
6207;SDS011;3137;51.550;7.060;2024-01-11T03:58:35;88.63;;;36.97;;
6207;SDS011;3137;51.550;7.060;2024-01-11T04:01:02;108.63;;;39.93;;
6207;SDS011;3137;51.550;7.060;2024-01-11T04:03:28;110.20;;;40.07;;
6207;SDS011;3137;51.550;7.060;2024-01-11T04:05:55;95.57;;;36.60;;
6207;SDS011;3137;51.550;7.060;2024-01-11T04:08:22;99.77;;;39.20;;
6207;SDS011;3137;51.550;7.060;2024-01-11T04:10:48;106.63;;;39.30;;
6207;SDS011;3137;51.550;7.060;2024-01-11T04:13:14;101.93;;;39.10;;
6207;SDS011;3137;51.550;7.060;2024-01-11T04:15:41;98.77;;;37.47;;
6207;SDS011;3137;51.550;7.060;2024-01-11T04:18:07;91.30;;;37.30;;
6207;SDS011;3137;51.550;7.060;2024-01-11T04:20:34;90.40;;;37.67;;
6207;SDS011;3137;51.550;7.060;2024-01-11T04:23:00;89.30;;;37.97;;
6207;SDS011;3137;51.550;7.060;2024-01-11T04:25:27;85.33;;;36.40;;
6207;SDS011;3137;51.550;7.060;2024-01-11T04:27:53;99.90;;;40.10;;
6207;SDS011;3137;51.550;7.060;2024-01-11T04:30:20;104.77;;;41.80;;
6207;SDS011;3137;51.550;7.060;2024-01-11T04:32:46;96.33;;;36.10;;
6207;SDS011;3137;51.550;7.060;2024-01-11T04:35:13;96.07;;;39.07;;
6207;SDS011;3137;51.550;7.060;2024-01-11T04:37:39;97.70;;;38.07;;
6207;SDS011;3137;51.550;7.060;2024-01-11T04:40:06;90.70;;;36.67;;
6207;SDS011;3137;51.550;7.060;2024-01-11T04:42:33;91.20;;;36.90;;
6207;SDS011;3137;51.550;7.060;2024-01-11T04:44:59;94.00;;;39.33;;
6207;SDS011;3137;51.550;7.060;2024-01-11T04:47:26;106.87;;;40.20;;
6207;SDS011;3137;51.550;7.060;2024-01-11T04:49:52;93.13;;;37.77;;
6207;SDS011;3137;51.550;7.060;2024-01-11T04:52:19;104.40;;;41.03;;
6207;SDS011;3137;51.550;7.060;2024-01-11T04:54:45;112.03;;;40.63;;
6207;SDS011;3137;51.550;7.060;2024-01-11T04:57:12;93.90;;;37.53;;
6207;SDS011;3137;51.550;7.060;2024-01-11T04:59:38;96.97;;;38.17;;
6207;SDS011;3137;51.550;7.060;2024-01-11T05:02:05;103.07;;;39.27;;
6207;SDS011;3137;51.550;7.060;2024-01-11T05:04:31;104.87;;;41.10;;
6207;SDS011;3137;51.550;7.060;2024-01-11T05:06:57;94.03;;;38.57;;
6207;SDS011;3137;51.550;7.060;2024-01-11T05:09:24;111.83;;;39.57;;
6207;SDS011;3137;51.550;7.060;2024-01-11T05:11:50;93.70;;;38.37;;
6207;SDS011;3137;51.550;7.060;2024-01-11T05:14:17;122.23;;;47.07;;
6207;SDS011;3137;51.550;7.060;2024-01-11T05:16:43;125.77;;;46.53;;
6207;SDS011;3137;51.550;7.060;2024-01-11T05:19:10;119.03;;;43.00;;
6207;SDS011;3137;51.550;7.060;2024-01-11T05:21:37;106.87;;;42.07;;
6207;SDS011;3137;51.550;7.060;2024-01-11T05:24:04;103.13;;;38.97;;
6207;SDS011;3137;51.550;7.060;2024-01-11T05:26:33;92.73;;;37.97;;
6207;SDS011;3137;51.550;7.060;2024-01-11T05:29:00;98.70;;;39.57;;
6207;SDS011;3137;51.550;7.060;2024-01-11T05:31:29;102.93;;;38.90;;
6207;SDS011;3137;51.550;7.060;2024-01-11T05:33:55;99.13;;;38.20;;
6207;SDS011;3137;51.550;7.060;2024-01-11T05:36:22;102.27;;;38.63;;
6207;SDS011;3137;51.550;7.060;2024-01-11T05:38:48;95.33;;;40.07;;
6207;SDS011;3137;51.550;7.060;2024-01-11T05:41:15;106.60;;;40.37;;
6207;SDS011;3137;51.550;7.060;2024-01-11T05:43:41;102.47;;;41.23;;
6207;SDS011;3137;51.550;7.060;2024-01-11T05:46:09;102.90;;;38.03;;
6207;SDS011;3137;51.550;7.060;2024-01-11T05:48:35;106.40;;;42.27;;
6207;SDS011;3137;51.550;7.060;2024-01-11T05:51:03;93.77;;;38.37;;
6207;SDS011;3137;51.550;7.060;2024-01-11T05:53:29;102.10;;;40.03;;
6207;SDS011;3137;51.550;7.060;2024-01-11T05:55:56;103.37;;;39.13;;
6207;SDS011;3137;51.550;7.060;2024-01-11T05:58:22;99.73;;;38.03;;
6207;SDS011;3137;51.550;7.060;2024-01-11T06:00:49;97.63;;;39.30;;
6207;SDS011;3137;51.550;7.060;2024-01-11T06:03:15;98.43;;;38.30;;
6207;SDS011;3137;51.550;7.060;2024-01-11T06:05:42;105.30;;;39.30;;
6207;SDS011;3137;51.550;7.060;2024-01-11T06:08:08;110.57;;;40.17;;
6207;SDS011;3137;51.550;7.060;2024-01-11T06:10:35;100.83;;;40.23;;
6207;SDS011;3137;51.550;7.060;2024-01-11T06:13:01;114.63;;;40.30;;
6207;SDS011;3137;51.550;7.060;2024-01-11T06:15:28;110.57;;;40.87;;
6207;SDS011;3137;51.550;7.060;2024-01-11T06:17:54;97.10;;;39.90;;
6207;SDS011;3137;51.550;7.060;2024-01-11T06:20:21;95.83;;;42.07;;
6207;SDS011;3137;51.550;7.060;2024-01-11T06:22:48;108.87;;;40.17;;
6207;SDS011;3137;51.550;7.060;2024-01-11T06:25:14;112.23;;;41.00;;
6207;SDS011;3137;51.550;7.060;2024-01-11T06:27:41;96.03;;;38.90;;
6207;SDS011;3137;51.550;7.060;2024-01-11T06:30:09;108.83;;;40.43;;
6207;SDS011;3137;51.550;7.060;2024-01-11T06:32:36;101.63;;;39.13;;
6207;SDS011;3137;51.550;7.060;2024-01-11T06:35:03;107.40;;;41.00;;
6207;SDS011;3137;51.550;7.060;2024-01-11T06:37:31;110.87;;;36.97;;
6207;SDS011;3137;51.550;7.060;2024-01-11T06:39:58;98.13;;;38.63;;
6207;SDS011;3137;51.550;7.060;2024-01-11T06:42:24;95.90;;;37.20;;
6207;SDS011;3137;51.550;7.060;2024-01-11T06:44:50;91.53;;;39.17;;
6207;SDS011;3137;51.550;7.060;2024-01-11T06:47:17;98.37;;;40.53;;
6207;SDS011;3137;51.550;7.060;2024-01-11T06:49:45;96.13;;;37.30;;
6207;SDS011;3137;51.550;7.060;2024-01-11T06:52:11;99.77;;;37.37;;
6207;SDS011;3137;51.550;7.060;2024-01-11T06:54:39;105.70;;;42.13;;
6207;SDS011;3137;51.550;7.060;2024-01-11T06:57:05;108.40;;;43.50;;
6207;SDS011;3137;51.550;7.060;2024-01-11T06:59:32;105.10;;;41.20;;
6207;SDS011;3137;51.550;7.060;2024-01-11T07:01:58;103.87;;;40.53;;
6207;SDS011;3137;51.550;7.060;2024-01-11T07:04:25;105.63;;;40.57;;
6207;SDS011;3137;51.550;7.060;2024-01-11T07:06:51;100.20;;;39.50;;
6207;SDS011;3137;51.550;7.060;2024-01-11T07:09:18;99.33;;;38.33;;
6207;SDS011;3137;51.550;7.060;2024-01-11T07:11:44;91.13;;;36.03;;
6207;SDS011;3137;51.550;7.060;2024-01-11T07:14:11;95.80;;;39.17;;
6207;SDS011;3137;51.550;7.060;2024-01-11T07:16:37;110.17;;;40.57;;
6207;SDS011;3137;51.550;7.060;2024-01-11T07:19:04;99.60;;;39.77;;
6207;SDS011;3137;51.550;7.060;2024-01-11T07:21:31;108.90;;;40.10;;
6207;SDS011;3137;51.550;7.060;2024-01-11T07:23:58;100.77;;;39.70;;
6207;SDS011;3137;51.550;7.060;2024-01-11T07:26:25;105.20;;;41.37;;
6207;SDS011;3137;51.550;7.060;2024-01-11T07:28:53;93.00;;;38.00;;
6207;SDS011;3137;51.550;7.060;2024-01-11T07:31:23;93.57;;;37.67;;
6207;SDS011;3137;51.550;7.060;2024-01-11T07:33:49;99.67;;;38.33;;
6207;SDS011;3137;51.550;7.060;2024-01-11T07:36:16;111.50;;;39.53;;
6207;SDS011;3137;51.550;7.060;2024-01-11T07:38:43;100.63;;;38.47;;
6207;SDS011;3137;51.550;7.060;2024-01-11T07:41:10;93.33;;;38.53;;
6207;SDS011;3137;51.550;7.060;2024-01-11T07:43:38;92.57;;;38.37;;
6207;SDS011;3137;51.550;7.060;2024-01-11T07:46:19;103.40;;;40.20;;
6207;SDS011;3137;51.550;7.060;2024-01-11T07:48:54;103.67;;;40.27;;
6207;SDS011;3137;51.550;7.060;2024-01-11T07:51:21;97.33;;;38.43;;
6207;SDS011;3137;51.550;7.060;2024-01-11T07:53:47;92.03;;;37.17;;
6207;SDS011;3137;51.550;7.060;2024-01-11T07:56:14;101.60;;;40.00;;
6207;SDS011;3137;51.550;7.060;2024-01-11T07:58:40;101.10;;;37.70;;
6207;SDS011;3137;51.550;7.060;2024-01-11T08:01:09;113.63;;;40.50;;
6207;SDS011;3137;51.550;7.060;2024-01-11T08:03:35;94.43;;;38.50;;
6207;SDS011;3137;51.550;7.060;2024-01-11T08:06:02;96.93;;;38.53;;
6207;SDS011;3137;51.550;7.060;2024-01-11T08:08:29;86.93;;;37.17;;
6207;SDS011;3137;51.550;7.060;2024-01-11T08:10:55;102.33;;;40.60;;
6207;SDS011;3137;51.550;7.060;2024-01-11T08:13:22;97.00;;;40.30;;
6207;SDS011;3137;51.550;7.060;2024-01-11T08:15:48;92.73;;;38.23;;
6207;SDS011;3137;51.550;7.060;2024-01-11T08:18:14;103.10;;;39.87;;
6207;SDS011;3137;51.550;7.060;2024-01-11T08:20:41;98.27;;;39.63;;
6207;SDS011;3137;51.550;7.060;2024-01-11T08:23:08;115.47;;;42.27;;
6207;SDS011;3137;51.550;7.060;2024-01-11T08:25:34;99.37;;;40.70;;
6207;SDS011;3137;51.550;7.060;2024-01-11T08:28:01;102.20;;;39.10;;
6207;SDS011;3137;51.550;7.060;2024-01-11T08:30:29;99.53;;;40.37;;
6207;SDS011;3137;51.550;7.060;2024-01-11T08:32:55;98.30;;;39.83;;
6207;SDS011;3137;51.550;7.060;2024-01-11T08:35:22;106.37;;;42.83;;
6207;SDS011;3137;51.550;7.060;2024-01-11T08:37:48;110.20;;;43.77;;
6207;SDS011;3137;51.550;7.060;2024-01-11T08:40:15;110.43;;;41.60;;
6207;SDS011;3137;51.550;7.060;2024-01-11T08:42:42;95.50;;;41.67;;
6207;SDS011;3137;51.550;7.060;2024-01-11T08:45:09;110.03;;;42.43;;
6207;SDS011;3137;51.550;7.060;2024-01-11T08:47:35;110.30;;;42.13;;
6207;SDS011;3137;51.550;7.060;2024-01-11T08:50:04;101.07;;;41.90;;
6207;SDS011;3137;51.550;7.060;2024-01-11T08:52:32;104.10;;;43.60;;
6207;SDS011;3137;51.550;7.060;2024-01-11T08:54:59;102.90;;;43.60;;
6207;SDS011;3137;51.550;7.060;2024-01-11T08:57:26;116.43;;;43.77;;
6207;SDS011;3137;51.550;7.060;2024-01-11T08:59:53;99.37;;;42.47;;
6207;SDS011;3137;51.550;7.060;2024-01-11T09:02:20;103.63;;;41.87;;
6207;SDS011;3137;51.550;7.060;2024-01-11T09:04:52;107.03;;;40.77;;
6207;SDS011;3137;51.550;7.060;2024-01-11T09:07:18;103.10;;;42.13;;
6207;SDS011;3137;51.550;7.060;2024-01-11T09:09:45;99.90;;;40.17;;
6207;SDS011;3137;51.550;7.060;2024-01-11T09:12:21;106.07;;;41.87;;
6207;SDS011;3137;51.550;7.060;2024-01-11T09:14:48;102.27;;;40.33;;
6207;SDS011;3137;51.550;7.060;2024-01-11T09:17:14;106.70;;;42.37;;
6207;SDS011;3137;51.550;7.060;2024-01-11T09:19:41;109.17;;;44.03;;
6207;SDS011;3137;51.550;7.060;2024-01-11T09:22:07;109.90;;;42.43;;
6207;SDS011;3137;51.550;7.060;2024-01-11T09:24:36;91.37;;;40.57;;
6207;SDS011;3137;51.550;7.060;2024-01-11T09:27:05;95.60;;;40.83;;
6207;SDS011;3137;51.550;7.060;2024-01-11T09:29:31;105.37;;;42.53;;
6207;SDS011;3137;51.550;7.060;2024-01-11T09:31:58;97.97;;;40.30;;
6207;SDS011;3137;51.550;7.060;2024-01-11T09:34:26;107.40;;;42.53;;
6207;SDS011;3137;51.550;7.060;2024-01-11T09:36:53;102.77;;;42.50;;
6207;SDS011;3137;51.550;7.060;2024-01-11T09:39:19;99.90;;;41.20;;
6207;SDS011;3137;51.550;7.060;2024-01-11T09:41:51;109.70;;;43.23;;
6207;SDS011;3137;51.550;7.060;2024-01-11T09:44:23;99.53;;;41.13;;
6207;SDS011;3137;51.550;7.060;2024-01-11T09:46:50;111.20;;;43.40;;
6207;SDS011;3137;51.550;7.060;2024-01-11T09:49:18;101.47;;;41.07;;
6207;SDS011;3137;51.550;7.060;2024-01-11T09:51:48;105.30;;;41.30;;
6207;SDS011;3137;51.550;7.060;2024-01-11T09:54:15;101.57;;;40.63;;
6207;SDS011;3137;51.550;7.060;2024-01-11T09:56:42;94.03;;;40.53;;
6207;SDS011;3137;51.550;7.060;2024-01-11T09:59:09;96.20;;;41.93;;
6207;SDS011;3137;51.550;7.060;2024-01-11T10:01:39;99.33;;;41.10;;
6207;SDS011;3137;51.550;7.060;2024-01-11T10:04:06;99.37;;;41.03;;
6207;SDS011;3137;51.550;7.060;2024-01-11T10:06:33;109.53;;;42.23;;
6207;SDS011;3137;51.550;7.060;2024-01-11T10:09:00;99.83;;;40.73;;
6207;SDS011;3137;51.550;7.060;2024-01-11T10:11:27;88.93;;;39.83;;
6207;SDS011;3137;51.550;7.060;2024-01-11T10:13:56;118.20;;;42.10;;
6207;SDS011;3137;51.550;7.060;2024-01-11T10:16:24;91.27;;;40.13;;
6207;SDS011;3137;51.550;7.060;2024-01-11T10:18:53;96.63;;;39.43;;
6207;SDS011;3137;51.550;7.060;2024-01-11T10:21:21;87.33;;;37.73;;
6207;SDS011;3137;51.550;7.060;2024-01-11T10:23:48;93.27;;;38.03;;
6207;SDS011;3137;51.550;7.060;2024-01-11T10:26:16;91.27;;;36.43;;
6207;SDS011;3137;51.550;7.060;2024-01-11T10:28:44;96.40;;;39.93;;
6207;SDS011;3137;51.550;7.060;2024-01-11T10:31:11;94.43;;;36.67;;
6207;SDS011;3137;51.550;7.060;2024-01-11T10:33:38;82.73;;;37.60;;
6207;SDS011;3137;51.550;7.060;2024-01-11T10:36:05;87.60;;;37.27;;
6207;SDS011;3137;51.550;7.060;2024-01-11T10:38:37;80.37;;;35.83;;
6207;SDS011;3137;51.550;7.060;2024-01-11T10:41:06;82.97;;;35.63;;
6207;SDS011;3137;51.550;7.060;2024-01-11T10:43:36;88.93;;;38.70;;
6207;SDS011;3137;51.550;7.060;2024-01-11T10:46:03;91.73;;;38.50;;
6207;SDS011;3137;51.550;7.060;2024-01-11T10:48:33;98.73;;;39.70;;
6207;SDS011;3137;51.550;7.060;2024-01-11T10:51:09;86.33;;;36.40;;
6207;SDS011;3137;51.550;7.060;2024-01-11T10:53:45;86.70;;;38.13;;
6207;SDS011;3137;51.550;7.060;2024-01-11T10:56:14;94.53;;;38.90;;
6207;SDS011;3137;51.550;7.060;2024-01-11T10:58:43;80.47;;;37.37;;
6207;SDS011;3137;51.550;7.060;2024-01-11T11:01:11;86.37;;;37.17;;
6207;SDS011;3137;51.550;7.060;2024-01-11T11:03:39;80.40;;;36.13;;
6207;SDS011;3137;51.550;7.060;2024-01-11T11:06:09;84.90;;;34.97;;
6207;SDS011;3137;51.550;7.060;2024-01-11T11:08:37;78.90;;;35.90;;
6207;SDS011;3137;51.550;7.060;2024-01-11T11:11:05;80.47;;;34.63;;
6207;SDS011;3137;51.550;7.060;2024-01-11T11:13:32;80.73;;;33.40;;
6207;SDS011;3137;51.550;7.060;2024-01-11T11:16:03;72.03;;;33.30;;
6207;SDS011;3137;51.550;7.060;2024-01-11T11:18:30;75.47;;;34.33;;
6207;SDS011;3137;51.550;7.060;2024-01-11T11:20:59;89.63;;;35.97;;
6207;SDS011;3137;51.550;7.060;2024-01-11T11:23:27;83.20;;;34.70;;
6207;SDS011;3137;51.550;7.060;2024-01-11T11:25:54;83.97;;;35.30;;
6207;SDS011;3137;51.550;7.060;2024-01-11T11:28:23;84.13;;;34.90;;
6207;SDS011;3137;51.550;7.060;2024-01-11T11:30:49;81.77;;;34.47;;
6207;SDS011;3137;51.550;7.060;2024-01-11T11:33:19;80.17;;;33.57;;
6207;SDS011;3137;51.550;7.060;2024-01-11T11:35:48;69.73;;;30.97;;
6207;SDS011;3137;51.550;7.060;2024-01-11T11:38:22;74.87;;;32.37;;
6207;SDS011;3137;51.550;7.060;2024-01-11T11:40:51;69.10;;;31.67;;
6207;SDS011;3137;51.550;7.060;2024-01-11T11:43:20;72.97;;;32.63;;
6207;SDS011;3137;51.550;7.060;2024-01-11T11:45:47;69.00;;;33.17;;
6207;SDS011;3137;51.550;7.060;2024-01-11T11:51:28;72.13;;;32.87;;
6207;SDS011;3137;51.550;7.060;2024-01-11T11:53:52;65.10;;;31.33;;
6207;SDS011;3137;51.550;7.060;2024-01-11T11:56:19;75.83;;;32.83;;
6207;SDS011;3137;51.550;7.060;2024-01-11T11:58:47;67.87;;;31.23;;
6207;SDS011;3137;51.550;7.060;2024-01-11T12:01:16;69.80;;;31.63;;
6207;SDS011;3137;51.550;7.060;2024-01-11T12:03:44;74.53;;;30.50;;
6207;SDS011;3137;51.550;7.060;2024-01-11T12:06:19;69.37;;;31.37;;
6207;SDS011;3137;51.550;7.060;2024-01-11T12:08:51;59.63;;;29.47;;
6207;SDS011;3137;51.550;7.060;2024-01-11T12:11:22;67.40;;;31.17;;
6207;SDS011;3137;51.550;7.060;2024-01-11T12:13:50;62.47;;;27.47;;
6207;SDS011;3137;51.550;7.060;2024-01-11T12:16:16;76.03;;;30.73;;
6207;SDS011;3137;51.550;7.060;2024-01-11T12:18:43;68.37;;;29.10;;
6207;SDS011;3137;51.550;7.060;2024-01-11T12:21:10;75.20;;;32.70;;
6207;SDS011;3137;51.550;7.060;2024-01-11T12:23:38;54.10;;;27.30;;
6207;SDS011;3137;51.550;7.060;2024-01-11T12:26:08;59.17;;;27.43;;
6207;SDS011;3137;51.550;7.060;2024-01-11T12:28:40;49.33;;;25.47;;
6207;SDS011;3137;51.550;7.060;2024-01-11T12:31:08;57.00;;;25.70;;
6207;SDS011;3137;51.550;7.060;2024-01-11T12:33:35;62.23;;;25.37;;
6207;SDS011;3137;51.550;7.060;2024-01-11T12:36:05;52.37;;;24.63;;
6207;SDS011;3137;51.550;7.060;2024-01-11T12:38:34;55.87;;;26.13;;
6207;SDS011;3137;51.550;7.060;2024-01-11T12:41:01;57.50;;;25.20;;
6207;SDS011;3137;51.550;7.060;2024-01-11T12:43:27;60.00;;;26.83;;
6207;SDS011;3137;51.550;7.060;2024-01-11T12:45:54;50.50;;;25.30;;
6207;SDS011;3137;51.550;7.060;2024-01-11T12:48:21;56.50;;;27.17;;
6207;SDS011;3137;51.550;7.060;2024-01-11T12:50:50;66.80;;;28.80;;
6207;SDS011;3137;51.550;7.060;2024-01-11T12:53:35;58.10;;;28.00;;
6207;SDS011;3137;51.550;7.060;2024-01-11T12:56:06;55.93;;;27.00;;
6207;SDS011;3137;51.550;7.060;2024-01-11T12:58:37;57.77;;;28.43;;
6207;SDS011;3137;51.550;7.060;2024-01-11T13:01:05;55.43;;;27.33;;
6207;SDS011;3137;51.550;7.060;2024-01-11T13:03:38;50.13;;;25.13;;
6207;SDS011;3137;51.550;7.060;2024-01-11T13:06:05;60.10;;;25.03;;
6207;SDS011;3137;51.550;7.060;2024-01-11T13:08:32;52.90;;;24.33;;
6207;SDS011;3137;51.550;7.060;2024-01-11T13:11:02;47.37;;;24.50;;
6207;SDS011;3137;51.550;7.060;2024-01-11T13:13:35;46.97;;;23.10;;
6207;SDS011;3137;51.550;7.060;2024-01-11T13:16:02;50.40;;;23.83;;
6207;SDS011;3137;51.550;7.060;2024-01-11T13:18:32;52.20;;;24.30;;
6207;SDS011;3137;51.550;7.060;2024-01-11T13:20:58;51.90;;;24.53;;
6207;SDS011;3137;51.550;7.060;2024-01-11T13:23:25;48.83;;;21.93;;
6207;SDS011;3137;51.550;7.060;2024-01-11T13:25:51;45.90;;;22.37;;
6207;SDS011;3137;51.550;7.060;2024-01-11T13:28:18;49.67;;;23.60;;
6207;SDS011;3137;51.550;7.060;2024-01-11T13:30:48;45.80;;;22.33;;
6207;SDS011;3137;51.550;7.060;2024-01-11T13:33:15;43.93;;;21.43;;
6207;SDS011;3137;51.550;7.060;2024-01-11T13:35:44;38.73;;;20.50;;
6207;SDS011;3137;51.550;7.060;2024-01-11T13:38:11;43.23;;;21.37;;
6207;SDS011;3137;51.550;7.060;2024-01-11T13:40:37;41.60;;;21.30;;
6207;SDS011;3137;51.550;7.060;2024-01-11T13:43:06;32.67;;;19.77;;
6207;SDS011;3137;51.550;7.060;2024-01-11T13:45:32;33.40;;;19.10;;
6207;SDS011;3137;51.550;7.060;2024-01-11T13:47:59;41.97;;;19.63;;
6207;SDS011;3137;51.550;7.060;2024-01-11T13:50:26;37.13;;;20.20;;
6207;SDS011;3137;51.550;7.060;2024-01-11T13:52:53;44.93;;;20.03;;
6207;SDS011;3137;51.550;7.060;2024-01-11T13:55:21;37.80;;;19.83;;
6207;SDS011;3137;51.550;7.060;2024-01-11T13:57:49;33.87;;;20.37;;
6207;SDS011;3137;51.550;7.060;2024-01-11T14:00:17;34.03;;;19.50;;
6207;SDS011;3137;51.550;7.060;2024-01-11T14:02:45;42.47;;;21.93;;
6207;SDS011;3137;51.550;7.060;2024-01-11T14:05:13;39.23;;;20.83;;
6207;SDS011;3137;51.550;7.060;2024-01-11T14:07:42;37.97;;;20.23;;
6207;SDS011;3137;51.550;7.060;2024-01-11T14:10:11;39.20;;;20.80;;
6207;SDS011;3137;51.550;7.060;2024-01-11T14:12:38;42.90;;;20.67;;
6207;SDS011;3137;51.550;7.060;2024-01-11T14:15:05;33.80;;;20.27;;
6207;SDS011;3137;51.550;7.060;2024-01-11T14:17:33;39.13;;;21.63;;
6207;SDS011;3137;51.550;7.060;2024-01-11T14:20:00;39.97;;;20.93;;
6207;SDS011;3137;51.550;7.060;2024-01-11T14:22:28;39.07;;;20.70;;
6207;SDS011;3137;51.550;7.060;2024-01-11T14:24:54;43.13;;;21.70;;
6207;SDS011;3137;51.550;7.060;2024-01-11T14:27:21;43.27;;;20.73;;
6207;SDS011;3137;51.550;7.060;2024-01-11T14:29:48;40.37;;;20.43;;
6207;SDS011;3137;51.550;7.060;2024-01-11T14:32:15;35.10;;;20.70;;
6207;SDS011;3137;51.550;7.060;2024-01-11T14:34:58;40.27;;;21.57;;
6207;SDS011;3137;51.550;7.060;2024-01-11T14:37:38;40.67;;;20.50;;
6207;SDS011;3137;51.550;7.060;2024-01-11T14:40:06;38.17;;;20.23;;
6207;SDS011;3137;51.550;7.060;2024-01-11T14:42:36;29.23;;;18.40;;
6207;SDS011;3137;51.550;7.060;2024-01-11T14:45:04;29.00;;;18.33;;
6207;SDS011;3137;51.550;7.060;2024-01-11T14:47:31;33.37;;;17.30;;